sensor_id;sensor_type;location;lat;lon;timestamp;pressure;altitude;pressure_sealevel;temperature;humidity
41102;BME280;26845;50.190;19.178;2022-11-13T00:00:04;100269.08;;;5.78;84.11
41102;BME280;26845;50.190;19.178;2022-11-13T00:02:32;100270.41;;;5.75;84.18
41102;BME280;26845;50.190;19.178;2022-11-13T00:04:59;100264.63;;;5.77;84.41
41102;BME280;26845;50.190;19.178;2022-11-13T00:07:24;100261.91;;;5.79;84.41
41102;BME280;26845;50.190;19.178;2022-11-13T00:09:50;100260.63;;;5.84;84.40
41102;BME280;26845;50.190;19.178;2022-11-13T00:12:15;100255.70;;;5.86;84.39
41102;BME280;26845;50.190;19.178;2022-11-13T00:14:42;100254.38;;;5.92;84.57
41102;BME280;26845;50.190;19.178;2022-11-13T00:17:08;100257.53;;;5.95;84.49
41102;BME280;26845;50.190;19.178;2022-11-13T00:19:33;100255.01;;;5.94;84.35
41102;BME280;26845;50.190;19.178;2022-11-13T00:21:59;100256.16;;;5.95;84.60
41102;BME280;26845;50.190;19.178;2022-11-13T00:24:25;100249.31;;;6.00;84.81
41102;BME280;26845;50.190;19.178;2022-11-13T00:26:51;100252.11;;;6.03;84.76
41102;BME280;26845;50.190;19.178;2022-11-13T00:29:16;100255.19;;;6.04;84.79
41102;BME280;26845;50.190;19.178;2022-11-13T00:31:42;100257.67;;;6.05;84.77
41102;BME280;26845;50.190;19.178;2022-11-13T00:34:09;100255.19;;;6.04;84.56
41102;BME280;26845;50.190;19.178;2022-11-13T00:36:35;100257.95;;;6.04;84.75
41102;BME280;26845;50.190;19.178;2022-11-13T00:39:01;100262.63;;;6.03;84.72
41102;BME280;26845;50.190;19.178;2022-11-13T00:41:27;100257.40;;;6.04;84.85
41102;BME280;26845;50.190;19.178;2022-11-13T00:43:52;100253.77;;;6.01;84.70
41102;BME280;26845;50.190;19.178;2022-11-13T00:46:18;100258.41;;;5.98;84.83
41102;BME280;26845;50.190;19.178;2022-11-13T00:48:47;100260.34;;;5.98;84.95
41102;BME280;26845;50.190;19.178;2022-11-13T00:51:13;100257.11;;;6.03;85.02
41102;BME280;26845;50.190;19.178;2022-11-13T00:53:38;100245.30;;;6.08;85.15
41102;BME280;26845;50.190;19.178;2022-11-13T00:56:05;100245.85;;;6.07;84.86
41102;BME280;26845;50.190;19.178;2022-11-13T00:58:30;100238.44;;;6.11;85.08
41102;BME280;26845;50.190;19.178;2022-11-13T01:01:08;100240.97;;;6.12;85.06
41102;BME280;26845;50.190;19.178;2022-11-13T01:03:36;100242.62;;;6.13;85.05
41102;BME280;26845;50.190;19.178;2022-11-13T01:06:10;100239.86;;;6.13;85.05
41102;BME280;26845;50.190;19.178;2022-11-13T01:08:38;100234.57;;;6.09;85.01
41102;BME280;26845;50.190;19.178;2022-11-13T01:11:17;100244.19;;;6.06;85.15
41102;BME280;26845;50.190;19.178;2022-11-13T01:13:41;100236.73;;;6.07;85.22
41102;BME280;26845;50.190;19.178;2022-11-13T01:16:10;100235.95;;;6.09;85.13
41102;BME280;26845;50.190;19.178;2022-11-13T01:18:37;100236.15;;;6.05;85.06
41102;BME280;26845;50.190;19.178;2022-11-13T01:21:05;100240.29;;;6.05;85.20
41102;BME280;26845;50.190;19.178;2022-11-13T01:23:38;100238.71;;;6.09;85.37
41102;BME280;26845;50.190;19.178;2022-11-13T01:26:20;100230.20;;;6.13;85.46
41102;BME280;26845;50.190;19.178;2022-11-13T01:28:47;100234.66;;;6.17;85.52
41102;BME280;26845;50.190;19.178;2022-11-13T01:31:19;100234.94;;;6.15;85.33
41102;BME280;26845;50.190;19.178;2022-11-13T01:33:47;100233.01;;;6.16;85.39
41102;BME280;26845;50.190;19.178;2022-11-13T01:36:16;100221.41;;;6.16;85.30
41102;BME280;26845;50.190;19.178;2022-11-13T01:38:43;100223.94;;;6.18;85.29
41102;BME280;26845;50.190;19.178;2022-11-13T01:41:15;100216.95;;;6.13;85.18
41102;BME280;26845;50.190;19.178;2022-11-13T01:43:46;100215.48;;;6.07;85.21
41102;BME280;26845;50.190;19.178;2022-11-13T01:46:19;100213.74;;;6.01;85.04
41102;BME280;26845;50.190;19.178;2022-11-13T01:51:27;100203.52;;;5.85;85.24
41102;BME280;26845;50.190;19.178;2022-11-13T01:53:54;100200.11;;;5.78;85.20
41102;BME280;26845;50.190;19.178;2022-11-13T01:56:22;100205.58;;;5.75;85.57
41102;BME280;26845;50.190;19.178;2022-11-13T01:59:09;100198.13;;;5.76;85.68
41102;BME280;26845;50.190;19.178;2022-11-13T02:01:48;100198.09;;;5.73;85.63
41102;BME280;26845;50.190;19.178;2022-11-13T02:04:15;100195.33;;;5.73;85.70
41102;BME280;26845;50.190;19.178;2022-11-13T02:09:16;100190.97;;;5.77;85.89
41102;BME280;26845;50.190;19.178;2022-11-13T02:11:43;100182.73;;;5.80;86.01
41102;BME280;26845;50.190;19.178;2022-11-13T02:14:12;100186.13;;;5.84;86.08
41102;BME280;26845;50.190;19.178;2022-11-13T02:16:41;100188.66;;;5.89;86.15
41102;BME280;26845;50.190;19.178;2022-11-13T02:19:23;100175.26;;;5.95;86.26
41102;BME280;26845;50.190;19.178;2022-11-13T02:24:33;100175.38;;;6.02;86.23
41102;BME280;26845;50.190;19.178;2022-11-13T02:27:09;100176.56;;;6.06;86.19
41102;BME280;26845;50.190;19.178;2022-11-13T02:29:40;100177.44;;;6.10;86.37
41102;BME280;26845;50.190;19.178;2022-11-13T02:32:07;100180.00;;;6.16;86.41
41102;BME280;26845;50.190;19.178;2022-11-13T02:34:33;100167.94;;;6.22;86.37
41102;BME280;26845;50.190;19.178;2022-11-13T02:37:00;100176.06;;;6.29;86.41
41102;BME280;26845;50.190;19.178;2022-11-13T02:39:27;100174.72;;;6.34;86.22
41102;BME280;26845;50.190;19.178;2022-11-13T02:41:54;100177.83;;;6.38;86.23
41102;BME280;26845;50.190;19.178;2022-11-13T02:44:20;100172.58;;;6.39;86.06
41102;BME280;26845;50.190;19.178;2022-11-13T02:46:47;100171.20;;;6.39;86.19
41102;BME280;26845;50.190;19.178;2022-11-13T02:49:13;100172.34;;;6.43;86.24
41102;BME280;26845;50.190;19.178;2022-11-13T02:51:40;100172.42;;;6.48;86.31
41102;BME280;26845;50.190;19.178;2022-11-13T02:54:07;100170.24;;;6.50;86.25
41102;BME280;26845;50.190;19.178;2022-11-13T02:56:33;100175.02;;;6.57;86.33
41102;BME280;26845;50.190;19.178;2022-11-13T02:59:00;100172.01;;;6.59;86.28
41102;BME280;26845;50.190;19.178;2022-11-13T03:01:27;100173.15;;;6.63;86.02
41102;BME280;26845;50.190;19.178;2022-11-13T03:03:54;100166.73;;;6.57;86.04
41102;BME280;26845;50.190;19.178;2022-11-13T03:06:20;100172.59;;;6.61;86.27
41102;BME280;26845;50.190;19.178;2022-11-13T03:08:47;100172.36;;;6.65;86.24
41102;BME280;26845;50.190;19.178;2022-11-13T03:11:14;100174.05;;;6.68;86.22
41102;BME280;26845;50.190;19.178;2022-11-13T03:13:42;100175.70;;;6.67;86.06
41102;BME280;26845;50.190;19.178;2022-11-13T03:16:14;100170.18;;;6.67;86.09
41102;BME280;26845;50.190;19.178;2022-11-13T03:18:42;100174.36;;;6.69;86.23
41102;BME280;26845;50.190;19.178;2022-11-13T03:21:15;100164.45;;;6.73;86.29
41102;BME280;26845;50.190;19.178;2022-11-13T03:23:42;100166.72;;;6.79;86.24
41102;BME280;26845;50.190;19.178;2022-11-13T03:26:14;100163.16;;;6.81;86.13
41102;BME280;26845;50.190;19.178;2022-11-13T03:28:42;100162.30;;;6.78;86.08
41102;BME280;26845;50.190;19.178;2022-11-13T03:31:08;100170.62;;;6.81;86.20
41102;BME280;26845;50.190;19.178;2022-11-13T03:33:35;100171.59;;;6.69;85.62
41102;BME280;26845;50.190;19.178;2022-11-13T03:36:02;100179.75;;;6.59;85.64
41102;BME280;26845;50.190;19.178;2022-11-13T03:38:29;100179.63;;;6.49;85.84
41102;BME280;26845;50.190;19.178;2022-11-13T03:40:56;100182.84;;;6.41;86.00
41102;BME280;26845;50.190;19.178;2022-11-13T03:43:23;100183.55;;;6.34;86.20
41102;BME280;26845;50.190;19.178;2022-11-13T03:45:49;100185.45;;;6.30;86.22
41102;BME280;26845;50.190;19.178;2022-11-13T03:48:16;100188.20;;;6.30;86.44
41102;BME280;26845;50.190;19.178;2022-11-13T03:50:46;100191.33;;;6.37;86.64
41102;BME280;26845;50.190;19.178;2022-11-13T03:53:16;100194.16;;;6.42;86.77
41102;BME280;26845;50.190;19.178;2022-11-13T03:55:43;100199.21;;;6.47;86.80
41102;BME280;26845;50.190;19.178;2022-11-13T03:58:10;100194.62;;;6.56;86.82
41102;BME280;26845;50.190;19.178;2022-11-13T04:00:38;100191.94;;;6.61;86.84
41102;BME280;26845;50.190;19.178;2022-11-13T04:03:07;100191.18;;;6.68;86.82
41102;BME280;26845;50.190;19.178;2022-11-13T04:05:34;100187.06;;;6.70;86.69
41102;BME280;26845;50.190;19.178;2022-11-13T04:08:00;100184.30;;;6.70;86.67
41102;BME280;26845;50.190;19.178;2022-11-13T04:10:27;100181.02;;;6.73;86.81
41102;BME280;26845;50.190;19.178;2022-11-13T04:12:54;100177.19;;;6.77;86.75
41102;BME280;26845;50.190;19.178;2022-11-13T04:15:21;100176.12;;;6.78;86.56
41102;BME280;26845;50.190;19.178;2022-11-13T04:17:48;100171.38;;;6.76;86.65
41102;BME280;26845;50.190;19.178;2022-11-13T04:20:17;100172.28;;;6.82;86.80
41102;BME280;26845;50.190;19.178;2022-11-13T04:22:44;100171.48;;;6.84;86.80
41102;BME280;26845;50.190;19.178;2022-11-13T04:25:10;100173.70;;;6.84;86.68
41102;BME280;26845;50.190;19.178;2022-11-13T04:27:37;100176.73;;;6.85;86.73
41102;BME280;26845;50.190;19.178;2022-11-13T04:30:04;100175.35;;;6.85;86.82
41102;BME280;26845;50.190;19.178;2022-11-13T04:32:32;100176.73;;;6.85;86.75
41102;BME280;26845;50.190;19.178;2022-11-13T04:34:59;100173.66;;;6.82;86.59
41102;BME280;26845;50.190;19.178;2022-11-13T04:37:25;100183.58;;;6.80;86.68
41102;BME280;26845;50.190;19.178;2022-11-13T04:39:52;100187.69;;;6.75;86.58
41102;BME280;26845;50.190;19.178;2022-11-13T04:42:19;100184.09;;;6.74;86.82
41102;BME280;26845;50.190;19.178;2022-11-13T04:45:04;100177.50;;;6.78;86.90
41102;BME280;26845;50.190;19.178;2022-11-13T04:47:31;100173.94;;;6.83;87.02
41102;BME280;26845;50.190;19.178;2022-11-13T04:49:58;100181.19;;;6.86;87.02
41102;BME280;26845;50.190;19.178;2022-11-13T04:52:25;100180.88;;;6.85;86.78
41102;BME280;26845;50.190;19.178;2022-11-13T04:54:54;100183.58;;;6.78;86.63
41102;BME280;26845;50.190;19.178;2022-11-13T04:57:20;100182.72;;;6.74;86.68
41102;BME280;26845;50.190;19.178;2022-11-13T04:59:47;100181.30;;;6.72;86.81
41102;BME280;26845;50.190;19.178;2022-11-13T05:02:14;100180.44;;;6.71;86.93
41102;BME280;26845;50.190;19.178;2022-11-13T05:04:40;100185.20;;;6.76;87.08
41102;BME280;26845;50.190;19.178;2022-11-13T05:07:07;100186.66;;;6.81;87.17
41102;BME280;26845;50.190;19.178;2022-11-13T05:09:33;100181.19;;;6.86;87.20
41102;BME280;26845;50.190;19.178;2022-11-13T05:12:00;100183.13;;;6.88;87.20
41102;BME280;26845;50.190;19.178;2022-11-13T05:14:27;100182.91;;;6.92;87.18
41102;BME280;26845;50.190;19.178;2022-11-13T05:16:53;100179.01;;;6.91;86.80
41102;BME280;26845;50.190;19.178;2022-11-13T05:19:20;100177.88;;;6.87;86.86
41102;BME280;26845;50.190;19.178;2022-11-13T05:21:47;100173.66;;;6.82;86.89
41102;BME280;26845;50.190;19.178;2022-11-13T05:24:13;100177.80;;;6.82;87.07
41102;BME280;26845;50.190;19.178;2022-11-13T05:26:40;100171.48;;;6.84;87.19
41102;BME280;26845;50.190;19.178;2022-11-13T05:29:07;100177.56;;;6.83;87.03
41102;BME280;26845;50.190;19.178;2022-11-13T05:31:33;100173.66;;;6.82;87.02
41102;BME280;26845;50.190;19.178;2022-11-13T05:34:02;100178.30;;;6.76;86.89
41102;BME280;26845;50.190;19.178;2022-11-13T05:36:29;100177.36;;;6.68;86.83
41102;BME280;26845;50.190;19.178;2022-11-13T05:38:57;100165.66;;;6.58;86.83
41102;BME280;26845;50.190;19.178;2022-11-13T05:41:24;100165.34;;;6.57;87.10
41102;BME280;26845;50.190;19.178;2022-11-13T05:43:51;100162.34;;;6.59;87.26
41102;BME280;26845;50.190;19.178;2022-11-13T05:46:20;100166.80;;;6.62;87.15
41102;BME280;26845;50.190;19.178;2022-11-13T05:48:51;100160.65;;;6.55;86.94
41102;BME280;26845;50.190;19.178;2022-11-13T05:51:23;100164.06;;;6.43;86.90
41102;BME280;26845;50.190;19.178;2022-11-13T05:53:52;100156.80;;;6.37;86.87
41102;BME280;26845;50.190;19.178;2022-11-13T05:56:28;100153.41;;;6.29;87.21
41102;BME280;26845;50.190;19.178;2022-11-13T05:58:58;100152.16;;;6.20;86.99
41102;BME280;26845;50.190;19.178;2022-11-13T06:01:30;100156.81;;;6.17;87.22
41102;BME280;26845;50.190;19.178;2022-11-13T06:04:00;100159.02;;;6.15;87.40
41102;BME280;26845;50.190;19.178;2022-11-13T06:06:29;100157.29;;;6.12;87.28
41102;BME280;26845;50.190;19.178;2022-11-13T06:08:58;100161.98;;;6.11;87.56
41102;BME280;26845;50.190;19.178;2022-11-13T06:11:28;100162.25;;;6.10;87.32
41102;BME280;26845;50.190;19.178;2022-11-13T06:13:56;100162.25;;;6.10;87.54
41102;BME280;26845;50.190;19.178;2022-11-13T06:16:26;100165.92;;;6.15;87.75
41102;BME280;26845;50.190;19.178;2022-11-13T06:18:56;100164.59;;;6.20;87.67
41102;BME280;26845;50.190;19.178;2022-11-13T06:21:26;100170.19;;;6.25;87.70
41102;BME280;26845;50.190;19.178;2022-11-13T06:23:56;100166.88;;;6.26;87.62
41102;BME280;26845;50.190;19.178;2022-11-13T06:26:29;100169.39;;;6.27;87.56
41102;BME280;26845;50.190;19.178;2022-11-13T06:28:58;100174.16;;;6.13;87.16
41102;BME280;26845;50.190;19.178;2022-11-13T06:31:28;100171.55;;;6.03;87.43
41102;BME280;26845;50.190;19.178;2022-11-13T06:34:00;100167.53;;;5.94;87.57
41102;BME280;26845;50.190;19.178;2022-11-13T06:36:30;100168.56;;;5.91;87.75
41102;BME280;26845;50.190;19.178;2022-11-13T06:38:58;100166.39;;;5.93;87.91
41102;BME280;26845;50.190;19.178;2022-11-13T06:41:27;100168.99;;;5.99;88.10
41102;BME280;26845;50.190;19.178;2022-11-13T06:43:57;100166.27;;;6.02;88.05
41102;BME280;26845;50.190;19.178;2022-11-13T06:46:27;100167.61;;;5.99;87.96
41102;BME280;26845;50.190;19.178;2022-11-13T06:48:54;100172.22;;;5.94;87.81
41102;BME280;26845;50.190;19.178;2022-11-13T06:51:23;100163.63;;;5.93;88.04
41102;BME280;26845;50.190;19.178;2022-11-13T06:53:51;100160.13;;;5.97;88.19
41102;BME280;26845;50.190;19.178;2022-11-13T06:56:18;100158.23;;;6.00;88.18
41102;BME280;26845;50.190;19.178;2022-11-13T06:58:46;100154.77;;;6.07;88.38
41102;BME280;26845;50.190;19.178;2022-11-13T07:01:18;100150.98;;;6.14;88.42
41102;BME280;26845;50.190;19.178;2022-11-13T07:03:46;100149.16;;;6.22;88.40
41102;BME280;26845;50.190;19.178;2022-11-13T07:06:16;100148.97;;;6.28;88.46
41102;BME280;26845;50.190;19.178;2022-11-13T07:08:44;100162.77;;;6.28;88.10
41102;BME280;26845;50.190;19.178;2022-11-13T07:11:14;100150.82;;;6.23;88.01
41102;BME280;26845;50.190;19.178;2022-11-13T07:13:43;100147.23;;;6.22;88.05
41102;BME280;26845;50.190;19.178;2022-11-13T07:16:11;100150.55;;;6.22;88.00
41102;BME280;26845;50.190;19.178;2022-11-13T07:18:38;100152.75;;;6.22;88.14
41102;BME280;26845;50.190;19.178;2022-11-13T07:21:07;100154.17;;;6.25;88.22
41102;BME280;26845;50.190;19.178;2022-11-13T07:23:35;100156.02;;;6.19;87.73
41102;BME280;26845;50.190;19.178;2022-11-13T07:26:05;100162.81;;;6.12;87.86
41102;BME280;26845;50.190;19.178;2022-11-13T07:28:31;100157.20;;;6.04;87.91
41102;BME280;26845;50.190;19.178;2022-11-13T07:30:59;100155.98;;;5.97;87.97
41102;BME280;26845;50.190;19.178;2022-11-13T07:33:29;100156.84;;;5.98;88.14
41102;BME280;26845;50.190;19.178;2022-11-13T07:35:56;100158.23;;;5.98;88.22
41102;BME280;26845;50.190;19.178;2022-11-13T07:38:23;100153.81;;;5.99;88.21
41102;BME280;26845;50.190;19.178;2022-11-13T07:40:50;100147.47;;;5.99;88.33
41102;BME280;26845;50.190;19.178;2022-11-13T07:43:18;100143.05;;;6.00;88.34
41102;BME280;26845;50.190;19.178;2022-11-13T07:45:44;100145.58;;;6.02;88.50
41102;BME280;26845;50.190;19.178;2022-11-13T07:48:11;100145.69;;;6.10;88.75
41102;BME280;26845;50.190;19.178;2022-11-13T07:50:38;100146.84;;;6.14;88.71
41102;BME280;26845;50.190;19.178;2022-11-13T07:53:06;100145.81;;;6.20;88.61
41102;BME280;26845;50.190;19.178;2022-11-13T07:55:34;100151.09;;;6.21;88.58
41102;BME280;26845;50.190;19.178;2022-11-13T07:58:03;100149.95;;;6.20;88.45
41102;BME280;26845;50.190;19.178;2022-11-13T08:00:33;100150.78;;;6.20;88.59
41102;BME280;26845;50.190;19.178;2022-11-13T08:03:08;100155.98;;;6.17;88.33
41102;BME280;26845;50.190;19.178;2022-11-13T08:05:37;100155.98;;;6.17;88.33
41102;BME280;26845;50.190;19.178;2022-11-13T08:08:05;100157.44;;;6.22;88.64
41102;BME280;26845;50.190;19.178;2022-11-13T08:10:34;100158.07;;;6.26;88.74
41102;BME280;26845;50.190;19.178;2022-11-13T08:13:03;100153.97;;;6.29;88.75
41102;BME280;26845;50.190;19.178;2022-11-13T08:15:32;100147.89;;;6.29;88.76
41102;BME280;26845;50.190;19.178;2022-11-13T08:18:01;100150.94;;;6.30;89.00
41102;BME280;26845;50.190;19.178;2022-11-13T08:20:29;100150.34;;;6.28;88.93
41102;BME280;26845;50.190;19.178;2022-11-13T08:23:01;100153.58;;;6.23;88.81
41102;BME280;26845;50.190;19.178;2022-11-13T08:25:30;100162.17;;;6.24;88.92
41102;BME280;26845;50.190;19.178;2022-11-13T08:27:58;100152.27;;;6.28;89.04
41102;BME280;26845;50.190;19.178;2022-11-13T08:30:26;100153.22;;;6.36;89.32
41102;BME280;26845;50.190;19.178;2022-11-13T08:32:53;100145.04;;;6.44;89.16
41102;BME280;26845;50.190;19.178;2022-11-13T08:35:20;100154.74;;;6.46;89.08
41102;BME280;26845;50.190;19.178;2022-11-13T08:37:47;100144.01;;;6.50;89.15
41102;BME280;26845;50.190;19.178;2022-11-13T08:40:14;100149.22;;;6.46;89.00
41102;BME280;26845;50.190;19.178;2022-11-13T08:42:41;100143.42;;;6.48;89.07
41102;BME280;26845;50.190;19.178;2022-11-13T08:45:09;100144.77;;;6.45;88.92
41102;BME280;26845;50.190;19.178;2022-11-13T08:47:36;100146.42;;;6.44;89.10
41102;BME280;26845;50.190;19.178;2022-11-13T08:50:04;100141.66;;;6.39;88.94
41102;BME280;26845;50.190;19.178;2022-11-13T08:52:32;100152.31;;;6.30;89.10
41102;BME280;26845;50.190;19.178;2022-11-13T08:54:58;100154.28;;;6.33;89.35
41102;BME280;26845;50.190;19.178;2022-11-13T08:57:25;100151.52;;;6.33;89.54
41102;BME280;26845;50.190;19.178;2022-11-13T08:59:52;100148.87;;;6.43;89.79
41102;BME280;26845;50.190;19.178;2022-11-13T09:02:18;100152.33;;;6.52;89.85
41102;BME280;26845;50.190;19.178;2022-11-13T09:04:45;100159.55;;;6.56;89.50
41102;BME280;26845;50.190;19.178;2022-11-13T09:07:12;100162.96;;;6.66;89.77
41102;BME280;26845;50.190;19.178;2022-11-13T09:09:38;100162.23;;;6.73;89.73
41102;BME280;26845;50.190;19.178;2022-11-13T09:12:05;100161.99;;;6.74;89.42
41102;BME280;26845;50.190;19.178;2022-11-13T09:14:32;100165.86;;;6.76;89.39
41102;BME280;26845;50.190;19.178;2022-11-13T09:16:58;100163.62;;;6.73;89.45
41102;BME280;26845;50.190;19.178;2022-11-13T09:19:25;100166.37;;;6.73;89.54
41102;BME280;26845;50.190;19.178;2022-11-13T09:21:52;100160.89;;;6.75;89.55
41102;BME280;26845;50.190;19.178;2022-11-13T09:24:19;100156.28;;;6.84;89.81
41102;BME280;26845;50.190;19.178;2022-11-13T09:26:45;100155.27;;;6.92;89.77
41102;BME280;26845;50.190;19.178;2022-11-13T09:29:12;100153.64;;;6.96;89.54
41102;BME280;26845;50.190;19.178;2022-11-13T09:31:39;100160.06;;;7.02;89.53
41102;BME280;26845;50.190;19.178;2022-11-13T09:34:07;100159.48;;;7.00;89.26
41102;BME280;26845;50.190;19.178;2022-11-13T09:36:34;100156.99;;;6.98;89.29
41102;BME280;26845;50.190;19.178;2022-11-13T09:39:03;100156.44;;;6.99;89.33
41102;BME280;26845;50.190;19.178;2022-11-13T09:41:33;100158.87;;;6.93;89.09
41102;BME280;26845;50.190;19.178;2022-11-13T09:44:05;100157.50;;;6.71;88.90
41102;BME280;26845;50.190;19.178;2022-11-13T09:46:41;100155.30;;;6.70;89.55
41102;BME280;26845;50.190;19.178;2022-11-13T09:49:18;100151.22;;;6.75;89.89
41102;BME280;26845;50.190;19.178;2022-11-13T09:51:54;100155.45;;;6.86;90.10
41102;BME280;26845;50.190;19.178;2022-11-13T09:54:23;100153.34;;;6.93;90.27
41102;BME280;26845;50.190;19.178;2022-11-13T09:59:41;100149.98;;;7.15;90.35
41102;BME280;26845;50.190;19.178;2022-11-13T10:13:59;100138.11;;;7.50;89.66
41102;BME280;26845;50.190;19.178;2022-11-13T10:16:36;100138.44;;;7.56;90.04
41102;BME280;26845;50.190;19.178;2022-11-13T10:21:52;100131.79;;;7.57;89.53
41102;BME280;26845;50.190;19.178;2022-11-13T10:24:28;100138.16;;;7.55;89.53
41102;BME280;26845;50.190;19.178;2022-11-13T10:27:12;100138.48;;;7.61;89.80
41102;BME280;26845;50.190;19.178;2022-11-13T10:29:41;100129.33;;;7.58;89.41
41102;BME280;26845;50.190;19.178;2022-11-13T10:32:21;100136.27;;;7.60;89.82
41102;BME280;26845;50.190;19.178;2022-11-13T10:34:52;100134.89;;;7.60;89.66
41102;BME280;26845;50.190;19.178;2022-11-13T10:39:58;100128.80;;;7.61;89.44
41102;BME280;26845;50.190;19.178;2022-11-13T10:42:39;100124.88;;;7.54;89.47
41102;BME280;26845;50.190;19.178;2022-11-13T10:45:15;100121.03;;;7.58;89.60
41102;BME280;26845;50.190;19.178;2022-11-13T10:47:50;100127.14;;;7.60;89.60
41102;BME280;26845;50.190;19.178;2022-11-13T10:50:25;100126.86;;;7.61;89.41
41102;BME280;26845;50.190;19.178;2022-11-13T10:52:54;100121.61;;;7.60;89.35
41102;BME280;26845;50.190;19.178;2022-11-13T10:55:39;100121.05;;;7.60;89.45
41102;BME280;26845;50.190;19.178;2022-11-13T10:58:15;100126.61;;;7.63;89.47
41102;BME280;26845;50.190;19.178;2022-11-13T11:00:47;100129.69;;;7.69;89.56
41102;BME280;26845;50.190;19.178;2022-11-13T11:03:24;100130.98;;;7.59;88.50
41102;BME280;26845;50.190;19.178;2022-11-13T11:05:58;100134.45;;;7.41;88.90
41102;BME280;26845;50.190;19.178;2022-11-13T11:08:34;100125.89;;;7.43;89.18
41102;BME280;26845;50.190;19.178;2022-11-13T11:11:21;100117.39;;;7.52;89.50
41102;BME280;26845;50.190;19.178;2022-11-13T11:14:28;100119.06;;;7.56;89.50
41102;BME280;26845;50.190;19.178;2022-11-13T11:17:08;100122.45;;;7.65;89.63
41102;BME280;26845;50.190;19.178;2022-11-13T11:19:46;100113.66;;;7.74;89.45
41102;BME280;26845;50.190;19.178;2022-11-13T11:22:18;100110.36;;;7.74;89.40
41102;BME280;26845;50.190;19.178;2022-11-13T11:25:08;100102.05;;;7.77;89.65
41102;BME280;26845;50.190;19.178;2022-11-13T11:27:53;100105.16;;;7.83;89.48
41102;BME280;26845;50.190;19.178;2022-11-13T11:30:22;100104.10;;;7.92;89.64
41102;BME280;26845;50.190;19.178;2022-11-13T11:35:53;100098.91;;;8.03;89.44
41102;BME280;26845;50.190;19.178;2022-11-13T11:38:52;100091.70;;;8.04;89.30
41102;BME280;26845;50.190;19.178;2022-11-13T11:42:05;100090.06;;;8.06;89.23
41102;BME280;26845;50.190;19.178;2022-11-13T11:44:30;100089.78;;;8.07;89.19
41102;BME280;26845;50.190;19.178;2022-11-13T11:46:59;100081.47;;;8.07;89.03
41102;BME280;26845;50.190;19.178;2022-11-13T11:49:27;100072.34;;;8.07;89.01
41102;BME280;26845;50.190;19.178;2022-11-13T12:00:20;100061.45;;;7.90;88.30
41102;BME280;26845;50.190;19.178;2022-11-13T12:06:18;100058.67;;;7.87;88.51
41102;BME280;26845;50.190;19.178;2022-11-13T12:09:02;100062.88;;;7.98;89.12
41102;BME280;26845;50.190;19.178;2022-11-13T12:11:37;100049.92;;;8.14;89.25
41102;BME280;26845;50.190;19.178;2022-11-13T12:20:06;100040.02;;;8.30;89.04
41102;BME280;26845;50.190;19.178;2022-11-13T12:23:03;100037.17;;;8.07;87.87
41102;BME280;26845;50.190;19.178;2022-11-13T12:25:39;100029.39;;;8.02;88.28
41102;BME280;26845;50.190;19.178;2022-11-13T12:36:57;100006.89;;;8.51;89.11
41102;BME280;26845;50.190;19.178;2022-11-13T12:45:16;99994.72;;;8.77;88.41
41102;BME280;26845;50.190;19.178;2022-11-13T12:48:07;99999.72;;;9.11;87.83
41102;BME280;26845;50.190;19.178;2022-11-13T12:50:36;99991.38;;;9.34;88.21
41102;BME280;26845;50.190;19.178;2022-11-13T12:53:07;99989.94;;;9.57;88.11
41102;BME280;26845;50.190;19.178;2022-11-13T12:55:37;99993.78;;;9.72;87.87
41102;BME280;26845;50.190;19.178;2022-11-13T13:01:05;99983.44;;;9.90;86.96
41102;BME280;26845;50.190;19.178;2022-11-13T13:21:00;99972.67;;;11.12;86.59
41102;BME280;26845;50.190;19.178;2022-11-13T13:23:43;99971.84;;;11.40;86.49
41102;BME280;26845;50.190;19.178;2022-11-13T13:26:24;99960.45;;;11.63;86.13
41102;BME280;26845;50.190;19.178;2022-11-13T13:28:54;99964.67;;;11.85;85.83
41102;BME280;26845;50.190;19.178;2022-11-13T13:31:37;99960.02;;;12.04;85.52
41102;BME280;26845;50.190;19.178;2022-11-13T13:37:31;99956.47;;;12.18;84.16
41102;BME280;26845;50.190;19.178;2022-11-13T13:46:16;99947.08;;;12.51;83.64
41102;BME280;26845;50.190;19.178;2022-11-13T13:48:53;99940.42;;;12.50;83.07
41102;BME280;26845;50.190;19.178;2022-11-13T13:53:59;99934.70;;;12.41;82.64
41102;BME280;26845;50.190;19.178;2022-11-13T13:56:27;99938.09;;;12.38;82.89
41102;BME280;26845;50.190;19.178;2022-11-13T13:58:54;99938.52;;;12.26;82.14
41102;BME280;26845;50.190;19.178;2022-11-13T14:01:32;99937.72;;;12.04;82.14
41102;BME280;26845;50.190;19.178;2022-11-13T14:04:17;99936.20;;;11.93;81.94
41102;BME280;26845;50.190;19.178;2022-11-13T14:06:55;99936.88;;;11.80;80.92
41102;BME280;26845;50.190;19.178;2022-11-13T14:09:26;99923.34;;;11.46;81.82
41102;BME280;26845;50.190;19.178;2022-11-13T14:12:02;99922.28;;;11.42;82.57
41102;BME280;26845;50.190;19.178;2022-11-13T14:14:31;99922.83;;;11.44;82.53
41102;BME280;26845;50.190;19.178;2022-11-13T14:16:59;99923.67;;;11.42;82.49
41102;BME280;26845;50.190;19.178;2022-11-13T14:19:27;99925.89;;;11.43;82.66
41102;BME280;26845;50.190;19.178;2022-11-13T14:21:59;99924.30;;;11.37;82.13
41102;BME280;26845;50.190;19.178;2022-11-13T14:24:41;99917.58;;;11.14;81.60
41102;BME280;26845;50.190;19.178;2022-11-13T14:27:17;99921.66;;;10.92;82.23
41102;BME280;26845;50.190;19.178;2022-11-13T14:29:49;99926.02;;;10.72;81.32
41102;BME280;26845;50.190;19.178;2022-11-13T14:32:24;99925.13;;;10.45;81.57
41102;BME280;26845;50.190;19.178;2022-11-13T14:34:57;99918.00;;;10.23;81.65
41102;BME280;26845;50.190;19.178;2022-11-13T14:40:12;99920.09;;;9.97;81.71
41102;BME280;26845;50.190;19.178;2022-11-13T14:42:42;99921.53;;;9.84;82.00